sensor_id;sensor_type;location;lat;lon;timestamp;P1;durP1;ratioP1;P2;durP2;ratioP2
355;SDS011;62514;48.112;11.566;2023-09-30T00:01:26;333.73;;;99.00;;
355;SDS011;62514;48.112;11.566;2023-09-30T00:03:52;420.00;;;128.33;;
355;SDS011;62514;48.112;11.566;2023-09-30T00:06:18;414.53;;;127.43;;
355;SDS011;62514;48.112;11.566;2023-09-30T00:08:44;417.40;;;129.33;;
355;SDS011;62514;48.112;11.566;2023-09-30T00:11:10;334.40;;;99.80;;
355;SDS011;62514;48.112;11.566;2023-09-30T00:13:36;420.13;;;130.70;;
355;SDS011;62514;48.112;11.566;2023-09-30T00:16:02;414.43;;;128.73;;
355;SDS011;62514;48.112;11.566;2023-09-30T00:18:27;425.27;;;132.03;;
355;SDS011;62514;48.112;11.566;2023-09-30T00:20:53;422.47;;;133.30;;
355;SDS011;62514;48.112;11.566;2023-09-30T00:23:19;421.03;;;132.57;;
355;SDS011;62514;48.112;11.566;2023-09-30T00:25:46;413.97;;;130.10;;
355;SDS011;62514;48.112;11.566;2023-09-30T00:28:15;430.00;;;137.97;;
355;SDS011;62514;48.112;11.566;2023-09-30T00:30:40;424.57;;;131.47;;
355;SDS011;62514;48.112;11.566;2023-09-30T00:33:06;420.33;;;128.90;;
355;SDS011;62514;48.112;11.566;2023-09-30T00:35:34;352.60;;;106.10;;
355;SDS011;62514;48.112;11.566;2023-09-30T00:38:01;337.07;;;100.70;;
355;SDS011;62514;48.112;11.566;2023-09-30T00:40:27;332.80;;;98.50;;
355;SDS011;62514;48.112;11.566;2023-09-30T00:42:52;348.27;;;105.40;;
355;SDS011;62514;48.112;11.566;2023-09-30T00:45:18;335.53;;;101.40;;
355;SDS011;62514;48.112;11.566;2023-09-30T00:47:44;332.13;;;100.40;;
355;SDS011;62514;48.112;11.566;2023-09-30T00:50:10;333.63;;;102.43;;
355;SDS011;62514;48.112;11.566;2023-09-30T00:52:37;332.83;;;99.40;;
355;SDS011;62514;48.112;11.566;2023-09-30T00:55:04;331.13;;;99.40;;
355;SDS011;62514;48.112;11.566;2023-09-30T00:57:31;340.17;;;105.10;;
355;SDS011;62514;48.112;11.566;2023-09-30T00:59:58;326.80;;;97.40;;
355;SDS011;62514;48.112;11.566;2023-09-30T01:02:26;341.93;;;102.37;;
355;SDS011;62514;48.112;11.566;2023-09-30T01:04:51;334.30;;;101.70;;
355;SDS011;62514;48.112;11.566;2023-09-30T01:07:17;327.50;;;98.57;;
355;SDS011;62514;48.112;11.566;2023-09-30T01:09:46;331.33;;;101.60;;
355;SDS011;62514;48.112;11.566;2023-09-30T01:12:12;332.33;;;101.07;;
355;SDS011;62514;48.112;11.566;2023-09-30T01:14:38;328.53;;;98.77;;
355;SDS011;62514;48.112;11.566;2023-09-30T01:17:05;341.20;;;103.30;;
355;SDS011;62514;48.112;11.566;2023-09-30T01:19:33;329.47;;;99.33;;
355;SDS011;62514;48.112;11.566;2023-09-30T01:21:59;343.60;;;105.27;;
355;SDS011;62514;48.112;11.566;2023-09-30T01:24:27;335.03;;;102.33;;
355;SDS011;62514;48.112;11.566;2023-09-30T01:26:56;329.63;;;100.60;;
355;SDS011;62514;48.112;11.566;2023-09-30T01:29:22;329.47;;;100.23;;
355;SDS011;62514;48.112;11.566;2023-09-30T01:31:50;329.53;;;99.37;;
355;SDS011;62514;48.112;11.566;2023-09-30T01:34:16;330.80;;;99.53;;
355;SDS011;62514;48.112;11.566;2023-09-30T01:36:43;329.10;;;99.63;;
355;SDS011;62514;48.112;11.566;2023-09-30T01:39:09;328.87;;;99.20;;
355;SDS011;62514;48.112;11.566;2023-09-30T01:41:36;337.73;;;104.07;;
355;SDS011;62514;48.112;11.566;2023-09-30T01:44:02;335.37;;;102.47;;
355;SDS011;62514;48.112;11.566;2023-09-30T01:46:28;329.80;;;101.43;;
355;SDS011;62514;48.112;11.566;2023-09-30T01:48:54;330.43;;;100.70;;
355;SDS011;62514;48.112;11.566;2023-09-30T01:51:20;331.40;;;101.13;;
355;SDS011;62514;48.112;11.566;2023-09-30T01:53:46;326.73;;;97.77;;
355;SDS011;62514;48.112;11.566;2023-09-30T01:56:12;325.57;;;97.80;;
355;SDS011;62514;48.112;11.566;2023-09-30T01:58:38;328.80;;;99.00;;
355;SDS011;62514;48.112;11.566;2023-09-30T02:01:04;327.43;;;98.30;;
355;SDS011;62514;48.112;11.566;2023-09-30T02:03:30;341.87;;;105.80;;
355;SDS011;62514;48.112;11.566;2023-09-30T02:05:56;341.50;;;104.87;;
355;SDS011;62514;48.112;11.566;2023-09-30T02:08:23;336.70;;;103.17;;
355;SDS011;62514;48.112;11.566;2023-09-30T02:10:49;333.23;;;101.87;;
355;SDS011;62514;48.112;11.566;2023-09-30T02:13:16;345.23;;;106.40;;
355;SDS011;62514;48.112;11.566;2023-09-30T02:15:42;333.07;;;100.80;;
355;SDS011;62514;48.112;11.566;2023-09-30T02:18:08;343.97;;;108.47;;
355;SDS011;62514;48.112;11.566;2023-09-30T02:20:34;325.23;;;98.17;;
355;SDS011;62514;48.112;11.566;2023-09-30T02:23:08;328.37;;;98.63;;
355;SDS011;62514;48.112;11.566;2023-09-30T02:25:36;332.80;;;102.67;;
355;SDS011;62514;48.112;11.566;2023-09-30T02:28:02;334.20;;;100.80;;
355;SDS011;62514;48.112;11.566;2023-09-30T02:30:29;343.17;;;104.53;;
355;SDS011;62514;48.112;11.566;2023-09-30T02:32:55;325.53;;;97.70;;
355;SDS011;62514;48.112;11.566;2023-09-30T02:35:21;331.17;;;100.63;;
355;SDS011;62514;48.112;11.566;2023-09-30T02:37:47;332.73;;;100.93;;
355;SDS011;62514;48.112;11.566;2023-09-30T02:40:12;318.73;;;98.57;;
355;SDS011;62514;48.112;11.566;2023-09-30T02:42:40;317.50;;;97.23;;
355;SDS011;62514;48.112;11.566;2023-09-30T02:45:06;329.93;;;100.73;;
355;SDS011;62514;48.112;11.566;2023-09-30T02:47:34;319.97;;;99.40;;
355;SDS011;62514;48.112;11.566;2023-09-30T02:50:00;412.93;;;130.47;;
355;SDS011;62514;48.112;11.566;2023-09-30T02:52:27;409.87;;;128.93;;
355;SDS011;62514;48.112;11.566;2023-09-30T02:54:54;414.67;;;130.73;;
355;SDS011;62514;48.112;11.566;2023-09-30T02:57:20;409.10;;;127.47;;
355;SDS011;62514;48.112;11.566;2023-09-30T02:59:46;402.43;;;122.53;;
355;SDS011;62514;48.112;11.566;2023-09-30T03:02:12;410.50;;;126.33;;
355;SDS011;62514;48.112;11.566;2023-09-30T03:04:38;415.93;;;125.30;;
355;SDS011;62514;48.112;11.566;2023-09-30T03:07:04;416.07;;;128.63;;
355;SDS011;62514;48.112;11.566;2023-09-30T03:09:30;411.87;;;125.83;;
355;SDS011;62514;48.112;11.566;2023-09-30T03:11:56;323.27;;;96.40;;
355;SDS011;62514;48.112;11.566;2023-09-30T03:14:24;320.73;;;98.70;;
355;SDS011;62514;48.112;11.566;2023-09-30T03:16:50;319.57;;;99.00;;
355;SDS011;62514;48.112;11.566;2023-09-30T03:19:17;405.73;;;125.73;;
355;SDS011;62514;48.112;11.566;2023-09-30T03:21:42;405.03;;;125.83;;
355;SDS011;62514;48.112;11.566;2023-09-30T03:24:08;327.20;;;98.47;;
355;SDS011;62514;48.112;11.566;2023-09-30T03:26:34;315.10;;;96.53;;
355;SDS011;62514;48.112;11.566;2023-09-30T03:29:00;328.73;;;100.37;;
355;SDS011;62514;48.112;11.566;2023-09-30T03:31:26;328.20;;;98.70;;
355;SDS011;62514;48.112;11.566;2023-09-30T03:33:52;315.80;;;95.93;;
355;SDS011;62514;48.112;11.566;2023-09-30T03:36:21;402.50;;;125.53;;
355;SDS011;62514;48.112;11.566;2023-09-30T03:38:51;329.40;;;100.57;;
355;SDS011;62514;48.112;11.566;2023-09-30T03:41:19;311.87;;;94.43;;
355;SDS011;62514;48.112;11.566;2023-09-30T03:43:45;405.70;;;126.67;;
355;SDS011;62514;48.112;11.566;2023-09-30T03:46:12;405.77;;;126.07;;
355;SDS011;62514;48.112;11.566;2023-09-30T03:48:38;331.50;;;102.47;;
355;SDS011;62514;48.112;11.566;2023-09-30T03:51:11;315.70;;;96.87;;
355;SDS011;62514;48.112;11.566;2023-09-30T03:53:43;404.57;;;126.10;;
355;SDS011;62514;48.112;11.566;2023-09-30T03:56:10;409.47;;;123.33;;
355;SDS011;62514;48.112;11.566;2023-09-30T03:58:40;406.73;;;126.47;;
355;SDS011;62514;48.112;11.566;2023-09-30T04:01:07;323.93;;;99.60;;
355;SDS011;62514;48.112;11.566;2023-09-30T04:03:33;328.73;;;101.13;;
355;SDS011;62514;48.112;11.566;2023-09-30T04:06:00;315.63;;;97.93;;
355;SDS011;62514;48.112;11.566;2023-09-30T04:08:28;404.83;;;127.40;;
355;SDS011;62514;48.112;11.566;2023-09-30T04:10:54;417.87;;;135.20;;
355;SDS011;62514;48.112;11.566;2023-09-30T04:13:19;317.10;;;97.80;;
355;SDS011;62514;48.112;11.566;2023-09-30T04:15:46;404.57;;;127.20;;
355;SDS011;62514;48.112;11.566;2023-09-30T04:18:12;404.87;;;125.80;;
355;SDS011;62514;48.112;11.566;2023-09-30T04:20:38;412.93;;;130.90;;
355;SDS011;62514;48.112;11.566;2023-09-30T04:23:05;406.80;;;124.80;;
355;SDS011;62514;48.112;11.566;2023-09-30T04:25:31;407.13;;;126.07;;
355;SDS011;62514;48.112;11.566;2023-09-30T04:27:57;324.87;;;98.77;;
355;SDS011;62514;48.112;11.566;2023-09-30T04:30:23;311.90;;;94.83;;
355;SDS011;62514;48.112;11.566;2023-09-30T04:32:49;359.50;;;106.50;;
355;SDS011;62514;48.112;11.566;2023-09-30T04:35:15;316.53;;;98.17;;
355;SDS011;62514;48.112;11.566;2023-09-30T04:37:41;408.73;;;128.47;;
355;SDS011;62514;48.112;11.566;2023-09-30T04:40:07;396.70;;;123.30;;
355;SDS011;62514;48.112;11.566;2023-09-30T04:42:40;400.67;;;123.40;;
355;SDS011;62514;48.112;11.566;2023-09-30T04:45:08;323.53;;;98.13;;
355;SDS011;62514;48.112;11.566;2023-09-30T04:47:35;325.63;;;99.23;;
355;SDS011;62514;48.112;11.566;2023-09-30T04:50:02;314.63;;;97.40;;
355;SDS011;62514;48.112;11.566;2023-09-30T04:52:32;400.07;;;123.60;;
355;SDS011;62514;48.112;11.566;2023-09-30T04:54:58;402.30;;;123.50;;
355;SDS011;62514;48.112;11.566;2023-09-30T04:57:25;403.43;;;125.47;;
355;SDS011;62514;48.112;11.566;2023-09-30T04:59:51;404.03;;;125.23;;
355;SDS011;62514;48.112;11.566;2023-09-30T05:02:17;404.23;;;121.63;;
355;SDS011;62514;48.112;11.566;2023-09-30T05:04:43;403.57;;;124.30;;
355;SDS011;62514;48.112;11.566;2023-09-30T05:07:09;315.93;;;96.10;;
355;SDS011;62514;48.112;11.566;2023-09-30T05:09:35;405.37;;;123.10;;
355;SDS011;62514;48.112;11.566;2023-09-30T05:12:01;405.33;;;122.80;;
355;SDS011;62514;48.112;11.566;2023-09-30T05:14:29;416.40;;;129.83;;
355;SDS011;62514;48.112;11.566;2023-09-30T05:16:55;409.50;;;125.83;;
355;SDS011;62514;48.112;11.566;2023-09-30T05:19:21;410.13;;;127.90;;
355;SDS011;62514;48.112;11.566;2023-09-30T05:21:47;406.43;;;125.80;;
355;SDS011;62514;48.112;11.566;2023-09-30T05:24:14;409.83;;;128.77;;
355;SDS011;62514;48.112;11.566;2023-09-30T05:26:40;324.73;;;98.63;;
355;SDS011;62514;48.112;11.566;2023-09-30T05:29:06;314.27;;;95.97;;
355;SDS011;62514;48.112;11.566;2023-09-30T05:31:32;408.87;;;125.80;;
355;SDS011;62514;48.112;11.566;2023-09-30T05:33:58;405.07;;;125.13;;
355;SDS011;62514;48.112;11.566;2023-09-30T05:36:24;402.27;;;123.03;;
355;SDS011;62514;48.112;11.566;2023-09-30T05:38:49;327.73;;;99.50;;
355;SDS011;62514;48.112;11.566;2023-09-30T05:41:15;358.53;;;112.10;;
355;SDS011;62514;48.112;11.566;2023-09-30T05:43:41;411.30;;;128.40;;
355;SDS011;62514;48.112;11.566;2023-09-30T05:46:08;412.50;;;129.40;;
355;SDS011;62514;48.112;11.566;2023-09-30T05:48:34;319.87;;;98.73;;
355;SDS011;62514;48.112;11.566;2023-09-30T05:50:59;331.03;;;101.30;;
355;SDS011;62514;48.112;11.566;2023-09-30T05:53:26;330.23;;;101.07;;
355;SDS011;62514;48.112;11.566;2023-09-30T05:55:53;314.90;;;95.57;;
355;SDS011;62514;48.112;11.566;2023-09-30T05:58:18;404.77;;;122.13;;
355;SDS011;62514;48.112;11.566;2023-09-30T06:00:44;404.40;;;122.17;;
355;SDS011;62514;48.112;11.566;2023-09-30T06:03:10;408.57;;;122.20;;
355;SDS011;62514;48.112;11.566;2023-09-30T06:05:42;411.40;;;125.70;;
355;SDS011;62514;48.112;11.566;2023-09-30T06:08:08;401.20;;;121.00;;
355;SDS011;62514;48.112;11.566;2023-09-30T06:10:41;329.43;;;102.10;;
355;SDS011;62514;48.112;11.566;2023-09-30T06:13:08;406.17;;;123.97;;
355;SDS011;62514;48.112;11.566;2023-09-30T06:15:36;103.77;;;29.63;;
355;SDS011;62514;48.112;11.566;2023-09-30T06:18:06;75.00;;;19.70;;
355;SDS011;62514;48.112;11.566;2023-09-30T06:20:32;421.80;;;123.00;;
355;SDS011;62514;48.112;11.566;2023-09-30T06:22:58;427.90;;;129.13;;
355;SDS011;62514;48.112;11.566;2023-09-30T06:25:27;415.13;;;123.73;;
355;SDS011;62514;48.112;11.566;2023-09-30T06:27:53;416.73;;;123.27;;
355;SDS011;62514;48.112;11.566;2023-09-30T06:30:22;413.83;;;123.87;;
355;SDS011;62514;48.112;11.566;2023-09-30T06:32:54;421.97;;;126.63;;
355;SDS011;62514;48.112;11.566;2023-09-30T06:35:21;334.17;;;96.23;;
355;SDS011;62514;48.112;11.566;2023-09-30T06:37:48;336.90;;;98.20;;
355;SDS011;62514;48.112;11.566;2023-09-30T06:40:14;340.33;;;100.13;;
355;SDS011;62514;48.112;11.566;2023-09-30T06:42:39;330.50;;;97.10;;
355;SDS011;62514;48.112;11.566;2023-09-30T06:45:06;333.50;;;96.70;;
355;SDS011;62514;48.112;11.566;2023-09-30T06:47:35;327.87;;;95.93;;
355;SDS011;62514;48.112;11.566;2023-09-30T06:50:03;333.97;;;98.23;;
355;SDS011;62514;48.112;11.566;2023-09-30T06:52:38;333.37;;;97.70;;
355;SDS011;62514;48.112;11.566;2023-09-30T06:55:04;328.53;;;94.40;;
355;SDS011;62514;48.112;11.566;2023-09-30T06:57:32;330.33;;;96.63;;
355;SDS011;62514;48.112;11.566;2023-09-30T07:00:11;329.27;;;96.73;;
355;SDS011;62514;48.112;11.566;2023-09-30T07:02:38;328.20;;;94.93;;
355;SDS011;62514;48.112;11.566;2023-09-30T07:05:06;330.20;;;96.37;;
355;SDS011;62514;48.112;11.566;2023-09-30T07:07:33;326.57;;;95.20;;
355;SDS011;62514;48.112;11.566;2023-09-30T07:09:59;338.33;;;99.47;;
355;SDS011;62514;48.112;11.566;2023-09-30T07:12:24;331.63;;;98.63;;
355;SDS011;62514;48.112;11.566;2023-09-30T07:14:50;331.20;;;95.87;;
355;SDS011;62514;48.112;11.566;2023-09-30T07:17:15;336.47;;;98.10;;
355;SDS011;62514;48.112;11.566;2023-09-30T07:19:41;329.40;;;95.67;;
355;SDS011;62514;48.112;11.566;2023-09-30T07:22:07;340.63;;;100.90;;
355;SDS011;62514;48.112;11.566;2023-09-30T07:24:32;334.17;;;97.60;;
355;SDS011;62514;48.112;11.566;2023-09-30T07:26:58;337.43;;;101.20;;
355;SDS011;62514;48.112;11.566;2023-09-30T07:29:24;338.37;;;102.23;;
355;SDS011;62514;48.112;11.566;2023-09-30T07:31:50;327.87;;;95.90;;
355;SDS011;62514;48.112;11.566;2023-09-30T07:34:16;363.63;;;110.67;;
355;SDS011;62514;48.112;11.566;2023-09-30T07:36:41;332.30;;;98.17;;
355;SDS011;62514;48.112;11.566;2023-09-30T07:39:07;331.10;;;97.50;;
355;SDS011;62514;48.112;11.566;2023-09-30T07:41:37;328.37;;;97.00;;
355;SDS011;62514;48.112;11.566;2023-09-30T07:44:02;328.87;;;95.10;;
355;SDS011;62514;48.112;11.566;2023-09-30T07:46:30;328.43;;;96.20;;
355;SDS011;62514;48.112;11.566;2023-09-30T07:48:56;328.80;;;96.40;;
355;SDS011;62514;48.112;11.566;2023-09-30T07:51:24;331.07;;;97.60;;
355;SDS011;62514;48.112;11.566;2023-09-30T07:53:49;332.93;;;97.87;;
355;SDS011;62514;48.112;11.566;2023-09-30T07:56:15;325.27;;;95.17;;
355;SDS011;62514;48.112;11.566;2023-09-30T07:58:41;329.90;;;97.87;;
355;SDS011;62514;48.112;11.566;2023-09-30T08:01:07;335.70;;;100.43;;
355;SDS011;62514;48.112;11.566;2023-09-30T08:03:33;330.43;;;96.93;;
355;SDS011;62514;48.112;11.566;2023-09-30T08:05:59;327.67;;;95.30;;
355;SDS011;62514;48.112;11.566;2023-09-30T08:08:25;329.70;;;96.83;;
355;SDS011;62514;48.112;11.566;2023-09-30T08:10:51;335.07;;;100.00;;
355;SDS011;62514;48.112;11.566;2023-09-30T08:13:21;329.97;;;98.30;;
355;SDS011;62514;48.112;11.566;2023-09-30T08:15:50;333.53;;;99.07;;
355;SDS011;62514;48.112;11.566;2023-09-30T08:18:17;340.93;;;101.27;;
355;SDS011;62514;48.112;11.566;2023-09-30T08:20:43;336.77;;;100.43;;
355;SDS011;62514;48.112;11.566;2023-09-30T08:23:08;328.50;;;96.20;;
355;SDS011;62514;48.112;11.566;2023-09-30T08:25:34;340.00;;;99.50;;
355;SDS011;62514;48.112;11.566;2023-09-30T08:28:00;328.90;;;97.10;;
355;SDS011;62514;48.112;11.566;2023-09-30T08:30:25;336.37;;;99.57;;
355;SDS011;62514;48.112;11.566;2023-09-30T08:32:51;338.30;;;98.23;;
355;SDS011;62514;48.112;11.566;2023-09-30T08:35:17;419.23;;;128.40;;
355;SDS011;62514;48.112;11.566;2023-09-30T08:37:43;327.90;;;95.33;;
355;SDS011;62514;48.112;11.566;2023-09-30T08:40:09;413.93;;;126.43;;
355;SDS011;62514;48.112;11.566;2023-09-30T08:42:35;327.97;;;96.10;;
355;SDS011;62514;48.112;11.566;2023-09-30T08:45:07;423.17;;;126.70;;
355;SDS011;62514;48.112;11.566;2023-09-30T08:47:35;416.10;;;126.93;;
355;SDS011;62514;48.112;11.566;2023-09-30T08:50:02;421.10;;;130.20;;
355;SDS011;62514;48.112;11.566;2023-09-30T08:52:35;330.27;;;96.83;;
355;SDS011;62514;48.112;11.566;2023-09-30T08:55:03;411.57;;;123.77;;
355;SDS011;62514;48.112;11.566;2023-09-30T08:57:30;407.30;;;124.90;;
355;SDS011;62514;48.112;11.566;2023-09-30T08:59:56;413.33;;;127.07;;
355;SDS011;62514;48.112;11.566;2023-09-30T09:02:23;412.67;;;125.40;;
355;SDS011;62514;48.112;11.566;2023-09-30T09:04:49;409.67;;;122.70;;
355;SDS011;62514;48.112;11.566;2023-09-30T09:07:15;413.13;;;124.20;;
355;SDS011;62514;48.112;11.566;2023-09-30T09:09:40;415.50;;;126.40;;
355;SDS011;62514;48.112;11.566;2023-09-30T09:12:06;428.70;;;132.10;;
355;SDS011;62514;48.112;11.566;2023-09-30T09:14:43;417.33;;;124.97;;
355;SDS011;62514;48.112;11.566;2023-09-30T09:17:10;414.53;;;126.97;;
355;SDS011;62514;48.112;11.566;2023-09-30T09:19:36;421.40;;;130.70;;
355;SDS011;62514;48.112;11.566;2023-09-30T09:22:02;335.67;;;97.37;;
355;SDS011;62514;48.112;11.566;2023-09-30T09:24:37;335.63;;;98.50;;
355;SDS011;62514;48.112;11.566;2023-09-30T09:27:12;420.63;;;127.43;;
355;SDS011;62514;48.112;11.566;2023-09-30T09:29:41;431.97;;;130.70;;
355;SDS011;62514;48.112;11.566;2023-09-30T09:32:16;432.67;;;130.37;;
355;SDS011;62514;48.112;11.566;2023-09-30T09:34:45;434.97;;;129.83;;
355;SDS011;62514;48.112;11.566;2023-09-30T09:37:24;431.90;;;131.47;;
355;SDS011;62514;48.112;11.566;2023-09-30T09:39:56;437.47;;;135.57;;
355;SDS011;62514;48.112;11.566;2023-09-30T09:42:30;427.03;;;128.63;;
355;SDS011;62514;48.112;11.566;2023-09-30T09:45:05;422.40;;;126.40;;
355;SDS011;62514;48.112;11.566;2023-09-30T09:47:32;424.70;;;128.47;;
355;SDS011;62514;48.112;11.566;2023-09-30T09:49:59;416.43;;;121.90;;
355;SDS011;62514;48.112;11.566;2023-09-30T09:52:28;420.30;;;124.63;;
355;SDS011;62514;48.112;11.566;2023-09-30T09:54:55;423.53;;;124.43;;
355;SDS011;62514;48.112;11.566;2023-09-30T09:57:23;427.40;;;126.70;;
355;SDS011;62514;48.112;11.566;2023-09-30T09:59:51;393.10;;;111.77;;
355;SDS011;62514;48.112;11.566;2023-09-30T10:02:19;394.43;;;114.40;;
355;SDS011;62514;48.112;11.566;2023-09-30T10:04:45;413.90;;;122.13;;
355;SDS011;62514;48.112;11.566;2023-09-30T10:07:36;403.20;;;120.17;;
355;SDS011;62514;48.112;11.566;2023-09-30T10:10:10;396.87;;;114.80;;
355;SDS011;62514;48.112;11.566;2023-09-30T10:12:39;412.13;;;121.20;;
355;SDS011;62514;48.112;11.566;2023-09-30T10:20:34;417.83;;;124.60;;
355;SDS011;62514;48.112;11.566;2023-09-30T10:25:46;420.93;;;118.80;;
355;SDS011;62514;48.112;11.566;2023-09-30T10:36:28;427.00;;;126.40;;
355;SDS011;62514;48.112;11.566;2023-09-30T10:38:55;409.93;;;150.60;;
355;SDS011;62514;48.112;11.566;2023-09-30T10:46:52;423.73;;;118.43;;
355;SDS011;62514;48.112;11.566;2023-09-30T10:51:56;417.87;;;123.53;;
355;SDS011;62514;48.112;11.566;2023-09-30T10:54:25;425.47;;;129.93;;
355;SDS011;62514;48.112;11.566;2023-09-30T10:56:56;414.37;;;123.60;;
355;SDS011;62514;48.112;11.566;2023-09-30T10:59:33;430.47;;;130.87;;
355;SDS011;62514;48.112;11.566;2023-09-30T11:02:00;402.97;;;111.33;;
355;SDS011;62514;48.112;11.566;2023-09-30T11:04:26;424.77;;;131.33;;
355;SDS011;62514;48.112;11.566;2023-09-30T11:06:55;425.27;;;128.70;;
355;SDS011;62514;48.112;11.566;2023-09-30T11:09:22;421.37;;;126.20;;
355;SDS011;62514;48.112;11.566;2023-09-30T11:11:48;425.77;;;127.13;;
355;SDS011;62514;48.112;11.566;2023-09-30T11:14:23;380.77;;;105.43;;
355;SDS011;62514;48.112;11.566;2023-09-30T11:16:54;417.03;;;115.87;;
355;SDS011;62514;48.112;11.566;2023-09-30T11:19:21;431.93;;;127.43;;
355;SDS011;62514;48.112;11.566;2023-09-30T11:21:56;425.47;;;130.77;;
355;SDS011;62514;48.112;11.566;2023-09-30T11:24:23;429.33;;;128.77;;
355;SDS011;62514;48.112;11.566;2023-09-30T11:26:53;423.20;;;117.93;;
355;SDS011;62514;48.112;11.566;2023-09-30T11:29:22;411.50;;;124.77;;
355;SDS011;62514;48.112;11.566;2023-09-30T11:31:48;409.80;;;124.60;;
355;SDS011;62514;48.112;11.566;2023-09-30T11:34:16;418.43;;;126.17;;
355;SDS011;62514;48.112;11.566;2023-09-30T11:36:48;410.80;;;125.33;;
355;SDS011;62514;48.112;11.566;2023-09-30T11:39:30;413.43;;;122.30;;
355;SDS011;62514;48.112;11.566;2023-09-30T11:41:56;429.27;;;124.30;;
355;SDS011;62514;48.112;11.566;2023-09-30T11:44:23;432.73;;;124.00;;
355;SDS011;62514;48.112;11.566;2023-09-30T11:46:56;386.13;;;117.67;;
355;SDS011;62514;48.112;11.566;2023-09-30T11:49:26;378.63;;;115.53;;
355;SDS011;62514;48.112;11.566;2023-09-30T11:51:54;420.50;;;122.67;;
355;SDS011;62514;48.112;11.566;2023-09-30T11:54:31;427.43;;;126.20;;
355;SDS011;62514;48.112;11.566;2023-09-30T11:56:59;415.73;;;124.50;;
355;SDS011;62514;48.112;11.566;2023-09-30T11:59:25;414.33;;;125.00;;
355;SDS011;62514;48.112;11.566;2023-09-30T12:01:51;425.00;;;129.90;;
355;SDS011;62514;48.112;11.566;2023-09-30T12:04:16;426.27;;;130.57;;
355;SDS011;62514;48.112;11.566;2023-09-30T12:06:44;413.30;;;117.73;;
355;SDS011;62514;48.112;11.566;2023-09-30T12:09:13;413.83;;;122.13;;
355;SDS011;62514;48.112;11.566;2023-09-30T12:11:47;417.17;;;121.87;;
355;SDS011;62514;48.112;11.566;2023-09-30T12:14:15;426.23;;;132.40;;
355;SDS011;62514;48.112;11.566;2023-09-30T12:16:41;423.90;;;121.70;;
355;SDS011;62514;48.112;11.566;2023-09-30T12:19:10;426.20;;;122.33;;
355;SDS011;62514;48.112;11.566;2023-09-30T12:21:36;383.20;;;114.77;;
355;SDS011;62514;48.112;11.566;2023-09-30T12:24:02;428.00;;;120.83;;
355;SDS011;62514;48.112;11.566;2023-09-30T12:26:29;389.00;;;117.63;;
355;SDS011;62514;48.112;11.566;2023-09-30T12:28:56;426.47;;;124.30;;
355;SDS011;62514;48.112;11.566;2023-09-30T12:31:22;430.80;;;125.57;;
355;SDS011;62514;48.112;11.566;2023-09-30T12:33:48;426.47;;;120.00;;
355;SDS011;62514;48.112;11.566;2023-09-30T12:36:16;423.63;;;122.60;;
355;SDS011;62514;48.112;11.566;2023-09-30T12:38:46;424.10;;;129.37;;
355;SDS011;62514;48.112;11.566;2023-09-30T12:41:12;424.67;;;121.70;;
355;SDS011;62514;48.112;11.566;2023-09-30T12:43:39;427.47;;;124.87;;
355;SDS011;62514;48.112;11.566;2023-09-30T12:46:07;425.87;;;129.37;;
355;SDS011;62514;48.112;11.566;2023-09-30T12:48:38;426.57;;;124.90;;
355;SDS011;62514;48.112;11.566;2023-09-30T12:51:04;430.07;;;125.23;;
355;SDS011;62514;48.112;11.566;2023-09-30T12:53:32;435.97;;;128.37;;
355;SDS011;62514;48.112;11.566;2023-09-30T12:55:58;431.77;;;127.27;;
355;SDS011;62514;48.112;11.566;2023-09-30T12:58:25;427.67;;;124.73;;
355;SDS011;62514;48.112;11.566;2023-09-30T13:00:53;428.33;;;124.73;;
355;SDS011;62514;48.112;11.566;2023-09-30T13:03:22;434.37;;;127.93;;
355;SDS011;62514;48.112;11.566;2023-09-30T13:05:48;428.40;;;125.93;;
355;SDS011;62514;48.112;11.566;2023-09-30T13:08:14;423.60;;;121.07;;
355;SDS011;62514;48.112;11.566;2023-09-30T13:10:40;428.43;;;124.37;;
355;SDS011;62514;48.112;11.566;2023-09-30T13:13:05;427.23;;;124.43;;
355;SDS011;62514;48.112;11.566;2023-09-30T13:15:32;436.23;;;126.70;;
355;SDS011;62514;48.112;11.566;2023-09-30T13:17:58;421.90;;;121.40;;
355;SDS011;62514;48.112;11.566;2023-09-30T13:20:24;423.23;;;122.53;;
355;SDS011;62514;48.112;11.566;2023-09-30T13:22:50;426.50;;;123.83;;
355;SDS011;62514;48.112;11.566;2023-09-30T13:25:16;426.10;;;124.43;;
355;SDS011;62514;48.112;11.566;2023-09-30T13:27:42;425.67;;;121.90;;
355;SDS011;62514;48.112;11.566;2023-09-30T13:30:08;429.13;;;122.97;;
355;SDS011;62514;48.112;11.566;2023-09-30T13:32:34;428.10;;;124.43;;
355;SDS011;62514;48.112;11.566;2023-09-30T13:35:03;383.97;;;119.07;;
355;SDS011;62514;48.112;11.566;2023-09-30T13:37:30;438.23;;;129.40;;
355;SDS011;62514;48.112;11.566;2023-09-30T13:40:01;433.13;;;132.60;;
355;SDS011;62514;48.112;11.566;2023-09-30T13:42:29;425.47;;;129.73;;
355;SDS011;62514;48.112;11.566;2023-09-30T13:44:57;428.23;;;128.40;;
355;SDS011;62514;48.112;11.566;2023-09-30T13:47:26;426.37;;;123.57;;
355;SDS011;62514;48.112;11.566;2023-09-30T13:49:52;417.40;;;122.60;;
355;SDS011;62514;48.112;11.566;2023-09-30T13:52:17;425.47;;;126.00;;
355;SDS011;62514;48.112;11.566;2023-09-30T13:54:43;427.70;;;129.93;;
355;SDS011;62514;48.112;11.566;2023-09-30T13:57:09;415.57;;;123.63;;
355;SDS011;62514;48.112;11.566;2023-09-30T13:59:35;417.63;;;124.40;;
355;SDS011;62514;48.112;11.566;2023-09-30T14:02:02;432.10;;;130.50;;
355;SDS011;62514;48.112;11.566;2023-09-30T14:04:31;440.77;;;131.37;;
355;SDS011;62514;48.112;11.566;2023-09-30T14:07:02;420.43;;;120.40;;
355;SDS011;62514;48.112;11.566;2023-09-30T14:09:30;425.77;;;122.10;;
355;SDS011;62514;48.112;11.566;2023-09-30T14:11:56;434.20;;;132.60;;
355;SDS011;62514;48.112;11.566;2023-09-30T14:14:23;438.10;;;128.17;;
355;SDS011;62514;48.112;11.566;2023-09-30T14:16:49;423.97;;;127.90;;
355;SDS011;62514;48.112;11.566;2023-09-30T14:19:15;431.57;;;130.70;;
355;SDS011;62514;48.112;11.566;2023-09-30T14:21:41;426.43;;;127.43;;
355;SDS011;62514;48.112;11.566;2023-09-30T14:24:07;445.77;;;133.03;;
355;SDS011;62514;48.112;11.566;2023-09-30T14:26:33;432.30;;;124.37;;
355;SDS011;62514;48.112;11.566;2023-09-30T14:28:59;426.00;;;129.00;;
355;SDS011;62514;48.112;11.566;2023-09-30T14:31:24;436.20;;;128.10;;
355;SDS011;62514;48.112;11.566;2023-09-30T14:33:51;444.30;;;137.93;;
355;SDS011;62514;48.112;11.566;2023-09-30T14:36:17;434.97;;;131.00;;
355;SDS011;62514;48.112;11.566;2023-09-30T14:38:43;444.43;;;136.03;;